• Join FlightAware (Why Join?)
  • Login
  • US Flag 
09:13AM EST


 

Airport Tracker/Info


-or-


 

Live Flight TrackerFlight Track Log ✈ SWA3228 ✈ 04-Jan-2014 ✈ KBOS - KBNA

Flight Track Log - Related Links

Times and Time Zones

All times are in EST time to prevent confusion due to time zone crossing. See the SWA3228 flight status page for this flight to view local times or setup timezone preferences in your user account.

Time Position Orientation Groundspeed Altitude Reporting Facility
EST Latitude Longitude Course Direction KTS MPH feet Rate Location/Type
06:08PM 42.3500 -71.0167 120° Southeast 144 166 1,000  Level KA90
06:09PM 42.3094 -70.9222 120° Southeast 275 316 5,400 3,000 Climbing Boston Center
06:10PM 42.3333 -70.8050 75° East 316 364 9,000 2,820 Climbing Boston Center
06:11PM 42.2747 -70.7306 137° Southeast 318 366 11,100 2,160 Climbing Boston Center
06:12PM 42.2153 -70.7975 220° Southwest 318 366 13,500 2,760 Climbing Boston Center
06:13PM 42.2092 -70.9294 266° West 337 388 16,700 2,700 Climbing Boston Center
06:14PM 42.2069 -71.0500 269° West 341 392 19,100 2,460 Climbing Boston Center
06:15PM 42.2067 -71.1786 270° West 344 396 21,800 2,400 Climbing Boston Center
06:16PM 42.2042 -71.3186 269° West 345 397 24,000 1,920 Climbing Boston Center
06:17PM 42.2008 -71.4592 268° West 372 428 25,800 1,740 Climbing Boston Center
06:18PM 42.1597 -71.5931 248° West 391 450 27,600 1,860 Climbing Boston Center
06:19PM 42.1103 -71.7250 243° Southwest 395 455 29,600 1,980 Climbing Boston Center
06:20PM 42.0594 -71.8547 242° Southwest 393 452 31,600 1,920 Climbing Boston Center
06:21PM 42.0075 -71.9822 241° Southwest 390 449 33,600 1,920 Climbing Boston Center
06:22PM 41.9575 -72.1058 241° Southwest 383 441 35,500 1,680 Climbing Boston Center
06:23PM 41.9108 -72.2239 242° Southwest 366 421 37,000 1,140 Climbing Boston Center
06:24PM 41.8633 -72.3442 242° Southwest 364 419 37,800 480 Climbing Boston Center
06:25PM 41.8139 -72.4650 241° Southwest 367 422 38,000 60 Climbing Boston Center
06:26PM 41.7639 -72.5878 241° Southwest 375 432 38,000  Level Boston Center
06:27PM 41.7136 -72.7056 240° Southwest 364 419 38,000  Level Boston Center
06:29PM 41.6639 -72.8269 241° Southwest 369 425 38,000  Level Boston Center
06:30PM 41.6139 -72.9456 241° Southwest 366 421 38,000  Level Boston Center
06:31PM 41.5639 -73.0650 241° Southwest 367 422 38,000  Level Boston Center
06:32PM 41.5078 -73.1989 241° Southwest 364 419 38,000  Level Boston Center
06:33PM 41.4578 -73.3156 240° Southwest 362 417 38,000  Level Boston Center
06:34PM 41.4089 -73.4306 240° Southwest 360 414 38,000  Level Boston Center
06:35PM 41.3589 -73.5458 240° Southwest 360 414 38,000  Level Boston Center
06:36PM 41.3106 -73.6606 241° Southwest 358 412 38,000  Level Boston Center
06:36PM 41.2694 -73.7606 241° Southwest 373 429 38,000  Level New York Center
06:37PM 41.2208 -73.8742 240° Southwest 373 429 38,000  Level New York Center
06:38PM 41.1697 -73.9878 239° Southwest 373 429 38,000  Level New York Center
06:39PM 41.1208 -74.1039 241° Southwest 373 429 38,000  Level New York Center
06:40PM 41.0675 -74.2167 238° Southwest 373 429 38,000  Level New York Center
06:41PM 41.0161 -74.3322 240° Southwest 373 429 38,000  Level New York Center
06:42PM 40.9669 -74.4450 240° Southwest 373 429 38,000  Level New York Center
06:43PM 40.9194 -74.5606 241° Southwest 373 429 38,000  Level New York Center
06:44PM 40.8681 -74.6731 239° Southwest 368 423 38,000  Level New York Center
06:45PM 40.8183 -74.7853 240° Southwest 368 423 38,000  Level New York Center
06:46PM 40.7708 -74.8950 240° Southwest 362 417 38,000  Level New York Center
06:47PM 40.7211 -75.0069 240° Southwest 362 417 38,000  Level New York Center
06:48PM 40.6714 -75.1133 238° Southwest 356 410 38,000  Level New York Center
06:49PM 40.6233 -75.2250 240° Southwest 345 397 38,000  Level New York Center
06:50PM 40.5736 -75.3311 238° Southwest 345 397 38,000  Level New York Center
06:51PM 40.5186 -75.4558 240° Southwest 345 397 38,000  Level New York Center
06:52PM 40.4683 -75.5669 239° Southwest 350 403 38,000  Level New York Center
06:53PM 40.4181 -75.6753 239° Southwest 350 403 38,000  Level New York Center
06:54PM 40.3675 -75.7889 240° Southwest 350 403 38,000  Level New York Center
06:55PM 40.3261 -75.8756 238° Southwest 350 403 38,000  Level New York Center
06:56PM 40.2644 -76.0017 237° Southwest 361 415 38,000  Level New York Center
06:57PM 40.2136 -76.1119 239° Southwest 361 415 38,000  Level New York Center
06:58PM 40.1714 -76.2119 241° Southwest 361 415 38,000  Level New York Center
06:59PM 40.1117 -76.3322 237° Southwest 361 415 38,000  Level New York Center
07:00PM 40.0603 -76.4447 239° Southwest 361 415 38,000  Level New York Center
07:01PM 40.0092 -76.5572 239° Southwest 361 415 38,000  Level New York Center
07:02PM 39.9581 -76.6639 238° Southwest 361 415 38,000  Level New York Center
07:03PM 39.9044 -76.7733 237° Southwest 361 415 38,000  Level New York Center
07:04PM 39.8531 -76.8797 238° Southwest 361 415 38,000  Level New York Center
07:06PM 39.7886 -77.0144 238° Southwest 363 418 38,000  Level Washington Center
07:07PM 39.7372 -77.1242 239° Southwest 363 418 38,000  Level Washington Center
07:08PM 39.6839 -77.2336 238° Southwest 363 418 38,000  Level Washington Center
07:09PM 39.6322 -77.3428 238° Southwest 363 418 38,000  Level Washington Center
07:10PM 39.5786 -77.4519 238° Southwest 363 418 38,000  Level Washington Center
07:11PM 39.5267 -77.5608 238° Southwest 363 418 38,000  Level Washington Center
07:12PM 39.4750 -77.6697 238° Southwest 363 418 38,000  Level Washington Center
07:13PM 39.4208 -77.7783 237° Southwest 363 418 38,000  Level Washington Center
07:14PM 39.3689 -77.8869 238° Southwest 363 418 38,000  Level Washington Center
07:15PM 39.3269 -77.9983 244° Southwest 357 411 38,000  Level Washington Center
07:16PM 39.2811 -78.1094 242° Southwest 351 404 38,000  Level Washington Center
07:17PM 39.2369 -78.2231 243° Southwest 351 404 38,000  Level Washington Center
07:18PM 39.1928 -78.3367 243° Southwest 351 404 38,000  Level Washington Center
07:19PM 39.1464 -78.4472 242° Southwest 351 404 38,000  Level Washington Center
07:20PM 39.0997 -78.5606 242° Southwest 356 410 38,000  Level Washington Center
07:21PM 39.0553 -78.6711 243° Southwest 356 410 38,000  Level Washington Center
07:22PM 39.0086 -78.7867 243° Southwest 361 415 38,000  Level Washington Center
07:23PM 38.9617 -78.8994 242° Southwest 361 415 38,000  Level Washington Center
07:24PM 38.9169 -79.0147 244° Southwest 361 415 38,000  Level Washington Center
07:25PM 38.8697 -79.1297 242° Southwest 361 415 38,000  Level Washington Center
07:26PM 38.8308 -79.2453 247° West 361 415 38,000  Level Washington Center
07:27PM 38.8083 -79.3694 257° West 355 409 38,000  Level Washington Center
07:28PM 38.7719 -79.5753 257° West 358 412 38,000  Level Indianapolis Center
07:29PM 38.7450 -79.7208 257° West 360 414 38,000  Level Indianapolis Center
07:30PM 38.7233 -79.8419 257° West 367 422 38,000  Level Indianapolis Center
07:31PM 38.6997 -79.9681 257° West 365 420 38,000  Level Indianapolis Center
07:32PM 38.6758 -80.0958 257° West 367 422 38,000  Level Indianapolis Center
07:33PM 38.6514 -80.2208 256° West 364 419 38,000  Level Indianapolis Center
07:34PM 38.6286 -80.3472 257° West 363 418 38,000  Level Indianapolis Center
07:35PM 38.6053 -80.4719 257° West 361 415 38,000  Level Indianapolis Center
07:36PM 38.5792 -80.5950 255° West 359 413 38,000  Level Indianapolis Center
07:38PM 38.5486 -80.7186 252° West 362 417 38,000  Level Indianapolis Center
07:39PM 38.5131 -80.8658 253° West 362 417 38,000  Level Indianapolis Center
07:40PM 38.4819 -80.9889 252° West 363 418 38,000  Level Indianapolis Center
07:41PM 38.4525 -81.1117 253° West 361 415 38,000  Level Indianapolis Center
07:42PM 38.4211 -81.2372 252° West 367 422 38,000  Level Indianapolis Center
07:43PM 38.3900 -81.3608 252° West 363 418 38,000  Level Indianapolis Center
07:44PM 38.3600 -81.4856 253° West 364 419 38,000  Level Indianapolis Center
07:45PM 38.3283 -81.6078 252° West 361 415 38,000  Level Indianapolis Center
07:46PM 38.2972 -81.7314 252° West 363 418 38,000  Level Indianapolis Center
07:47PM 38.2658 -81.8544 252° West 364 419 38,000  Level Indianapolis Center
07:48PM 38.2350 -81.9772 252° West 364 419 38,000  Level Indianapolis Center
07:49PM 38.2036 -82.1017 252° West 369 425 38,000  Level Indianapolis Center
07:50PM 38.1714 -82.2269 252° West 371 427 38,000  Level Indianapolis Center
07:51PM 38.1394 -82.3514 252° West 369 425 38,000  Level Indianapolis Center
07:52PM 38.1022 -82.4911 251° West 373 429 38,000  Level Indianapolis Center
07:53PM 38.0519 -82.6058 241° Southwest 375 432 38,000  Level Indianapolis Center
07:54PM 38.0006 -82.7206 240° Southwest 374 430 38,000  Level Indianapolis Center
07:55PM 37.9478 -82.8372 240° Southwest 383 441 38,000  Level Indianapolis Center
07:56PM 37.8961 -82.9542 241° Southwest 381 438 38,000  Level Indianapolis Center
07:57PM 37.8358 -83.0883 240° Southwest 377 434 38,000 -420 Level Indianapolis Center
07:58PM 37.7825 -83.2050 240° Southwest 382 440 37,200 -540 Descending Indianapolis Center
07:59PM 37.7300 -83.3194 240° Southwest 379 436 37,000 -180 Descending Indianapolis Center
08:00PM 37.6769 -83.4361 240° Southwest 382 440 36,900 -1,020 Descending Indianapolis Center
08:01PM 37.6244 -83.5522 240° Southwest 382 440 35,000 -1,440 Descending Indianapolis Center
08:02PM 37.5711 -83.6658 239° Southwest 379 436 34,000 -540 Descending Indianapolis Center
08:03PM 37.5194 -83.7797 240° Southwest 375 432 34,000 -120 Level Indianapolis Center
08:04PM 37.4575 -83.9131 240° Southwest 379 436 33,800 -600 Descending Indianapolis Center
08:05PM 37.4053 -84.0272 240° Southwest 377 434 32,800 -900 Descending Indianapolis Center
08:06PM 37.3517 -84.1414 239° Southwest 378 435 32,000 -420 Descending Indianapolis Center
08:07PM 37.2997 -84.2508 239° Southwest 368 423 32,000  Level Indianapolis Center
08:08PM 37.2483 -84.3625 240° Southwest 368 423 32,000  Level Indianapolis Center
08:09PM 37.1944 -84.4772 239° Southwest 376 433 32,000  Level Indianapolis Center
08:10PM 37.1378 -84.5950 239° Southwest 389 448 32,000  Level Indianapolis Center
08:11PM 37.0831 -84.7119 240° Southwest 389 448 32,000 -480 Level Indianapolis Center
08:12PM 37.0194 -84.8450 239° Southwest 393 452 31,100 -960 Descending Indianapolis Center
08:13PM 36.9636 -84.9608 239° Southwest 391 450 30,100 -960 Descending Indianapolis Center
08:14PM 36.9072 -85.0778 239° Southwest 393 452 29,200 -1,620 Descending Indianapolis Center
08:15PM 36.8508 -85.1947 239° Southwest 395 455 26,900 -2,460 Descending Indianapolis Center
08:16PM 36.7958 -85.3089 239° Southwest 386 444 24,200 -2,400 Descending Indianapolis Center
08:17PM 36.7439 -85.4156 239° Southwest 366 421 22,000 -1,680 Descending Indianapolis Center
08:18PM 36.6967 -85.5178 240° Southwest 343 395 20,900 -1,440 Descending Indianapolis Center
08:19PM 36.6514 -85.6108 239° Southwest 320 368 19,100 -1,860 Descending Indianapolis Center
08:20PM 36.6025 -85.7144 240° Southwest 294 338 17,200 -1,860 Descending Indianapolis Center
08:21PM 36.5633 -85.8003 240° Southwest 286 329 15,400 -1,680 Descending Indianapolis Center
08:22PM 36.5225 -85.8819 238° Southwest 282 325 13,800 -1,620 Descending Indianapolis Center
08:23PM 36.4878 -85.9639 242° Southwest 268 308 12,100 -1,620 Descending Indianapolis Center
08:25PM 36.4544 -86.0447 243° Southwest 261 300 10,600 -1,440 Descending Indianapolis Center
08:26PM 36.4217 -86.1200 242° Southwest 248 285 9,200 -1,440 Descending Indianapolis Center
08:27PM 36.3911 -86.1928 242° Southwest 239 275 7,700 -1,380 Descending Indianapolis Center
08:28PM 36.3592 -86.2667 242° Southwest 239 275 6,400 -1,320 Descending Indianapolis Center
08:29PM 36.3289 -86.3386 242° Southwest 235 270 5,100 -1,200 Descending Indianapolis Center
08:30PM 36.2989 -86.4072 242° Southwest 227 261 4,000 -1,260 Descending Indianapolis Center
08:30PM 36.2833 -86.4500 246° West 219 252 3,000 -1,020 Descending Nashville TRACON
08:31PM 36.2567 -86.5067 240° Southwest 215 247 2,500 -300 Descending Memphis Center
08:32PM 36.2336 -86.5578 241° Southwest 183 211 2,500 -180 Level Memphis Center
08:33PM 36.2164 -86.5997 243° Southwest 148 170 2,200 -360 Descending Memphis Center
08:34PM 36.1933 -86.6281 225° Southwest 126 145 1,800 -480 Descending Memphis Center
08:35PM 36.1658 -86.6478 210° Southwest 116 133 1,300 -540 Descending Memphis Center
08:36PM 36.1344 -86.6578 194° South 117 135 800 -540 Descending Memphis Center